Latest Weather Observations for Central Arnhem Plateau

IDD60801

Issued at 4:02 pm CST Wednesday 28 January 2015 (issued every 30 minutes, with the page automatically refreshed every 10 minutes)

About weather observations | Map of weather stations | Latest weather observations for NT | Other Formats
Station Details ID: 014909 Name: CENTRAL ARNHEM PLATEAU Lat: -13.33 Lon: 133.09 Height: 416.0 m
Data from the previous 72 hours. | See also: Recent months for locations in Northern Territory
Date/Time
CST
Temp
°C
App
Temp
°C
Dew
Point
Rel
Hum
%
Delta-T
°C
Wind Press
QNH
hPa
Press
MSL
hPa
Rain
since 9 am
mm
Dir
 
Spd
km/h
Gust
km/h
Spd
kts
Gust
kts
28/04:00pm 26.0 26.7 19.6 68 4.2 W 15 22 8 12 1004.7 1001.6 0.0
28/03:30pm 26.3 26.6 19.7 67 4.4 WNW 17 22 9 12 1005.0 1001.9 0.0
28/03:00pm 28.1 27.1 18.8 57 6.1 WNW 22 33 12 18 1005.6 1002.6 0.0
28/02:30pm 32.4 32.2 16.7 39 10.1 SE 13 20 7 11 1005.4 1002.4 0.0
28/02:00pm 32.3 31.7 15.7 36 10.5 SE 13 19 7 10 1005.6 1002.6 0.0
28/01:30pm 32.1 31.6 16.0 38 10.3 ESE 13 17 7 9 1006.1 1003.1 0.0
28/01:00pm 32.2 32.5 16.9 40 9.9 SE 11 19 6 10 1006.6 1003.5 0.0
28/12:30pm 31.5 32.9 17.4 43 9.1 E 6 11 3 6 1007.1 1004.0 0.0
28/12:00pm 31.7 33.8 19.0 47 8.4 SE 6 11 3 6 1007.4 1004.4 0.0
28/11:30am 30.7 32.4 18.4 47 8.1 S 7 13 4 7 1007.6 1004.6 0.0
28/11:00am 30.1 32.7 19.2 52 7.2 S 4 9 2 5 1007.6 1004.6 0.0
28/10:30am 29.5 31.3 19.5 55 6.6 SSE 9 11 5 6 1007.7 1004.7 0.0
28/10:00am 28.5 29.3 19.1 56 6.2 SSE 13 17 7 9 1007.8 1004.8 0.0
28/09:30am 28.3 28.7 19.0 57 6.1 SE 15 20 8 11 1007.9 1004.9 0.0
28/09:00am 27.6 27.8 18.6 58 5.9 SSE 15 20 8 11 1008.0 1005.0 0.0
28/08:30am 26.7 26.9 18.6 61 5.3 SE 15 19 8 10 1008.1 1005.1 0.0
28/08:00am 25.5 26.2 18.9 67 4.3 SE 13 15 7 8 1008.1 1005.1 0.0
28/07:30am 24.3 25.8 18.9 72 3.5 SE 9 13 5 7 1007.8 1004.8 0.0
28/07:00am 23.2 25.0 19.6 80 2.3 SE 9 11 5 6 1007.3 1004.2 0.0
28/06:30am 23.1 25.2 19.3 79 2.5 SE 7 9 4 5 1007.0 1003.9 0.0
28/06:00am 23.1 24.7 19.1 78 2.6 SSE 9 13 5 7 1006.9 1003.8 0.0
28/05:30am 23.1 24.3 19.1 78 2.6 SSE 11 17 6 9 1006.9 1003.8 0.0
28/05:00am 23.2 24.4 19.1 78 2.7 SSW 11 13 6 7 1007.0 1003.9 0.0
28/04:30am 23.4 25.7 19.8 80 2.4 SW 7 9 4 5 1007.1 1004.0 0.0
28/04:00am 23.3 25.3 19.9 81 2.2 SW 9 15 5 8 1007.2 1004.1 0.0
28/03:30am 23.5 24.3 19.8 80 2.4 WSW 15 22 8 12 1007.4 1004.4 0.0
28/03:00am 23.9 26.0 20.2 80 2.4 W 9 17 5 9 1007.2 1004.1 0.0
28/02:30am 24.3 27.1 20.4 79 2.6 SE 6 11 3 6 1007.1 1004.0 0.0
28/02:00am 24.2 26.1 19.7 76 3.0 ESE 9 13 5 7 1007.5 1004.5 0.0
28/01:30am 24.4 26.4 19.9 76 3.0 SSE 9 13 5 7 1007.7 1004.7 0.0
28/01:00am 24.5 27.7 20.6 79 2.6 WSW 4 7 2 4 1007.8 1004.8 0.0
28/12:30am 24.6 26.9 20.7 79 2.6 WSW 9 13 5 7 1008.5 1005.5 0.0
28/12:00am 24.7 26.5 21.2 81 2.3 WSW 13 17 7 9 1008.9 1005.8 0.0
 
Date/Time
CST
Temp
°C
App
Temp
°C
Dew
Point
Rel
Hum
%
Delta-T
°C
Wind Press
QNH
hPa
Press
MSL
hPa
Rain
since 9 am
mm
Dir
 
Spd
km/h
Gust
km/h
Spd
kts
Gust
kts
27/11:30pm 24.8 27.3 21.7 83 2.1 W 11 15 6 8 1009.4 1006.3 0.0
27/11:00pm 24.7 27.0 21.4 82 2.2 WSW 11 13 6 7 1009.6 1006.6 0.0
27/10:30pm 24.6 26.1 21.3 82 2.2 W 15 19 8 10 1009.5 1006.4 0.0
27/10:00pm 24.6 26.5 21.3 82 2.2 W 13 17 7 9 1009.3 1006.2 0.0
27/09:30pm 24.7 26.7 21.6 83 2.1 W 13 20 7 11 1009.2 1006.1 0.0
27/09:00pm 24.8 25.4 21.1 80 2.5 WNW 19 24 10 13 1008.5 1005.5 0.0
27/08:30pm 25.8 27.3 20.6 73 3.5 WNW 13 19 7 10 1008.1 1005.1 0.0
27/08:00pm 26.2 28.1 20.5 71 3.8 WNW 11 15 6 8 1007.6 1004.6 0.0
27/07:30pm 25.9 28.9 20.9 74 3.4 WNW 6 7 3 4 1007.2 1004.1 0.0
27/07:00pm 26.0 28.7 20.3 71 3.8 N 6 7 3 4 1007.2 1004.1 0.0
27/06:30pm 26.0 27.5 20.6 72 3.6 N 13 17 7 9 1006.6 1003.5 0.0
27/06:00pm 25.3 27.4 21.0 77 2.9 NNW 11 15 6 8 1006.1 1003.1 0.0
27/05:30pm 25.7 27.5 21.1 76 3.1 NNE 13 20 7 11 1006.1 1003.1 0.0
27/05:00pm 25.4 27.6 20.4 74 3.3 WNW 9 13 5 7 1005.4 1002.4 0.0
27/04:30pm 25.5 26.1 21.0 76 3.0 NW 19 26 10 14 1005.3 1002.3 0.0
27/04:00pm 26.3 27.8 21.3 74 3.4 NW 15 28 8 15 1005.4 1002.4 0.0
27/03:30pm 27.4 27.8 21.0 68 4.3 NNW 20 30 11 16 1005.5 1002.5 0.0
27/03:00pm 31.7 32.9 20.0 50 7.9 E 13 19 7 10 1005.6 1002.6 0.0
27/02:30pm 32.5 34.4 19.0 44 9.0 S 7 15 4 8 1006.0 1003.0 0.0
27/02:00pm 31.5 32.1 18.5 46 8.5 SSW 13 17 7 9 1006.6 1003.5 0.0
27/01:30pm 32.4 35.1 20.6 49 8.0 SSW 7 24 4 13 1007.1 1004.0 0.0
27/01:00pm 30.7 31.8 18.8 49 7.8 S 11 17 6 9 1007.7 1004.7 0.0
27/12:30pm 30.8 32.7 19.8 52 7.4 SSE 9 15 5 8 1008.1 1005.1 0.0
27/12:00pm 30.4 32.3 20.6 55 6.6 SSW 11 19 6 10 1008.9 1005.8 0.0
27/11:30am 29.2 29.2 19.8 57 6.3 WSW 19 26 10 14 1009.2 1006.1 0.0
27/11:00am 28.9 29.9 19.5 57 6.2 WSW 13 20 7 11 1009.6 1006.6 0.0
27/10:30am 28.1 29.5 19.6 60 5.6 SW 11 20 6 11 1009.8 1006.8 0.0
27/10:00am 27.4 30.2 19.7 63 5.1 SW 4 13 2 7 1009.9 1006.9 0.0
27/09:30am 26.6 28.7 19.0 63 5.0 WSW 6 9 3 5 1009.8 1006.8 0.0
27/09:00am 26.0 27.7 19.4 67 4.3 SW 9 15 5 8 1010.3 1007.3 0.0
27/08:30am 25.3 26.2 20.1 73 3.4 SW 15 26 8 14 1010.3 1007.3 0.0
27/08:00am 24.5 25.8 20.8 80 2.5 WSW 15 20 8 11 1010.3 1007.3 0.0
27/07:30am 24.3 26.0 21.0 82 2.2 W 13 17 7 9 1009.8 1006.8 0.0
27/07:00am 23.8 26.3 21.1 85 1.8 WSW 9 11 5 6 1009.8 1006.8 0.0
27/06:30am 23.6 27.4 20.9 85 1.8 WSW 2 7 1 4 1009.3 1006.2 0.0
27/06:00am 23.7 27.8 20.8 84 1.9 CALM 0 0 0 0 1009.0 1005.9 0.0
27/05:30am 23.6 26.6 20.9 85 1.8 NW 6 7 3 4 1008.9 1005.8 0.0
27/05:00am 23.7 25.7 20.8 84 1.9 WNW 11 17 6 9 1008.5 1005.5 0.0
27/04:30am 23.8 25.9 20.9 84 1.9 WNW 11 15 6 8 1008.0 1005.0 0.0
27/04:00am 23.8 25.9 20.9 84 1.9 W 11 17 6 9 1008.2 1005.2 0.0
27/03:30am 23.9 25.5 20.8 83 2.1 SSW 13 19 7 10 1009.1 1006.0 0.0
27/03:00am 23.9 26.4 21.0 84 1.9 SW 9 11 5 6 1009.0 1005.9 0.0
27/02:30am 23.7 26.1 20.8 84 1.9 W 9 13 5 7 1008.9 1005.8 0.0
27/02:00am 23.8 25.8 20.7 83 2.1 W 11 13 6 7 1009.0 1005.9 0.0
27/01:30am 23.9 25.8 20.6 82 2.2 W 11 17 6 9 1009.0 1005.9 0.0
27/01:00am 24.1 25.3 20.6 81 2.3 WNW 15 20 8 11 1009.6 1006.6 0.0
27/12:30am 24.5 26.0 20.6 79 2.6 W 13 17 7 9 1010.3 1007.3 0.0
27/12:00am 24.8 27.1 20.7 78 2.7 W 9 15 5 8 1010.6 1007.6 0.0
 
Date/Time
CST
Temp
°C
App
Temp
°C
Dew
Point
Rel
Hum
%
Delta-T
°C
Wind Press
QNH
hPa
Press
MSL
hPa
Rain
since 9 am
mm
Dir
 
Spd
km/h
Gust
km/h
Spd
kts
Gust
kts
26/11:30pm 24.7 26.5 20.4 77 2.8 NW 11 15 6 8 1010.7 1007.7 0.0
26/11:00pm 24.6 25.9 20.9 80 2.5 NW 15 24 8 13 1010.7 1007.7 0.0
26/10:30pm 24.7 26.1 21.0 80 2.5 NW 15 22 8 12 1010.3 1007.3 0.0
26/10:00pm 24.9 26.8 21.4 81 2.4 NNW 13 24 7 13 1010.0 1007.0 0.0
26/09:30pm 25.5 27.5 21.6 79 2.6 NW 13 17 7 9 1009.5 1006.4 0.0
26/09:00pm 25.5 28.3 21.6 79 2.6 NW 9 13 5 7 1009.1 1006.0 0.0
26/08:30pm 25.4 26.6 21.5 79 2.6 NW 17 24 9 13 1009.0 1005.9 0.0
26/08:00pm 26.4 27.5 22.0 77 3.0 NW 19 28 10 15 1008.6 1005.6 0.0
26/07:30pm 27.3 28.2 20.9 68 4.3 WNW 17 24 9 13 1008.5 1005.5 0.0
26/07:00pm 27.6 28.8 21.4 69 4.2 WNW 17 24 9 13 1008.1 1005.1 0.0
26/06:30pm 28.4 28.8 19.9 60 5.7 WNW 17 22 9 12 1007.8 1004.8 0.0
26/06:00pm 29.5 30.8 20.1 57 6.3 NW 13 20 7 11 1007.6 1004.6 0.0
26/05:30pm 30.5 32.1 19.2 51 7.5 SW 9 13 5 7 1007.5 1004.5 0.0
26/05:00pm 30.8 32.1 19.2 50 7.7 SW 11 15 6 8 1007.5 1004.5 0.0
26/04:30pm 30.9 32.4 18.9 48 7.9 SSW 9 13 5 7 1007.4 1004.4 0.0
26/04:00pm 31.3 33.1 19.6 49 7.8 SW 9 15 5 8 1007.3 1004.2 0.0
26/03:30pm 31.4 32.8 18.7 46 8.4 S 9 20 5 11 1007.7 1004.7 0.0
26/03:00pm 30.5 31.2 18.9 50 7.7 S 13 26 7 14 1007.7 1004.7 0.0
26/02:30pm 30.4 31.9 19.7 52 7.1 SSW 11 19 6 10 1008.0 1005.0 0.0
26/02:00pm 30.0 31.2 20.0 55 6.7 SSW 13 19 7 10 1009.1 1006.0 0.0
26/01:30pm 29.7 30.8 19.7 55 6.7 WSW 13 17 7 9 1009.3 1006.2 0.0
26/01:00pm 29.9 31.3 18.7 51 7.3 S 9 22 5 12 1009.7 1006.7 0.0
26/12:30pm 29.5 30.5 19.5 55 6.6 S 13 20 7 11 1010.2 1007.2 0.0
26/12:00pm 29.2 29.4 18.6 52 6.9 S 15 24 8 13 1010.9 1007.9 0.0
26/11:30am 28.7 28.7 18.2 53 6.8 SSW 15 22 8 12 1011.5 1008.4 0.0
26/11:00am 29.0 29.4 19.0 54 6.6 SSW 15 20 8 11 1012.0 1009.0 0.0
26/10:30am 28.2 29.4 19.1 57 6.0 SSW 11 19 6 10 1012.3 1009.3 0.0
26/10:00am 27.7 29.3 20.0 63 5.1 SW 11 17 6 9 1012.5 1009.5 0.0
26/09:30am 26.6 28.2 20.0 67 4.4 W 11 17 6 9 1012.4 1009.4 0.0
26/09:00am 26.0 27.2 19.9 69 4.0 WNW 13 17 7 9 1012.0 1009.0 4.8
26/08:30am 25.3 26.6 20.1 73 3.4 W 13 15 7 8 1011.9 1008.9 4.8
26/08:00am 24.8 26.9 20.1 75 3.1 WNW 9 13 5 7 1011.5 1008.4 4.8
26/07:30am 23.4 25.5 20.1 82 2.2 NW 9 15 5 8 1010.9 1007.9 4.8
26/07:00am 22.6 24.7 20.1 86 1.6 NW 9 11 5 6 1010.8 1007.8 4.8
26/06:30am 22.5 24.8 19.9 85 1.7 WNW 7 11 4 6 1010.7 1007.7 4.8
26/06:00am 22.6 25.0 20.1 86 1.6 W 7 9 4 5 1010.6 1007.6 4.8
26/05:30am 22.4 24.7 19.8 85 1.7 WNW 7 9 4 5 1010.3 1007.3 4.8
26/05:00am 22.2 25.0 19.7 86 1.6 NNW 4 7 2 4 1009.8 1006.8 4.8
26/04:30am 22.0 24.3 19.5 86 1.6 N 6 9 3 5 1009.7 1006.7 4.8
26/04:00am 22.2 24.6 19.6 85 1.7 NNE 6 7 3 4 1009.7 1006.7 4.8
26/03:30am 22.5 24.9 19.7 84 1.8 SE 6 9 3 5 1009.8 1006.8 4.8
26/03:00am 22.6 26.2 19.8 84 1.8 CALM 0 0 0 0 1009.5 1006.4 4.8
26/02:30am 22.7 26.2 19.5 82 2.1 CALM 0 0 0 0 1009.5 1006.4 4.8
26/02:00am 22.7 24.9 19.5 82 2.1 SE 7 11 4 6 1009.7 1006.7 4.8
26/01:30am 23.0 25.0 19.2 79 2.5 WSW 7 9 4 5 1010.1 1007.1 4.8
26/01:00am 23.3 25.1 19.5 79 2.5 WSW 9 11 5 6 1010.6 1007.6 4.8
26/12:30am 23.2 25.2 19.1 78 2.7 W 7 9 4 5 1011.4 1008.3 4.8
26/12:00am 23.0 23.9 19.2 79 2.5 SW 13 17 7 9 1012.2 1009.2 4.8
 
Date/Time
CST
Temp
°C
App
Temp
°C
Dew
Point
Rel
Hum
%
Delta-T
°C
Wind Press
QNH
hPa
Press
MSL
hPa
Rain
since 9 am
mm
Dir
 
Spd
km/h
Gust
km/h
Spd
kts
Gust
kts
25/11:30pm 22.7 22.9 19.3 81 2.2 SSW 17 22 9 12 1012.7 1009.7 4.8
25/11:00pm 22.1 21.7 19.3 84 1.8 SSW 20 26 11 14 1013.0 1010.0 4.8
25/10:30pm 22.0 21.8 19.4 85 1.7 SSW 19 24 10 13 1013.1 1010.1 4.8
25/10:00pm 22.3 24.8 19.8 86 1.6 NW 6 11 3 6 1013.2 1010.2 4.0
25/09:30pm 21.5 22.7 19.1 86 1.5 E 11 13 6 7 1013.0 1010.0 3.8
25/09:00pm 21.7 23.8 18.9 84 1.8 E 6 9 3 5 1012.5 1009.5 1.8
25/08:30pm 21.5 21.2 19.1 86 1.5 SSE 19 26 10 14 1011.9 1008.9 1.4
25/08:00pm 21.8 19.8 18.4 81 2.2 SE 26 37 14 20 1011.4 1008.3 0.0
25/07:30pm 24.5 23.5 16.7 61 4.9 N 17 30 9 16 1010.9 1007.9 0.0
25/07:00pm 27.8 27.2 20.6 65 4.8 NW 24 35 13 19 1009.3 1006.2 0.0
25/06:30pm 29.1 28.8 21.1 62 5.4 NW 24 35 13 19 1008.2 1005.2 0.0
25/06:00pm 30.6 30.6 20.2 53 7.0 NW 20 30 11 16 1007.7 1004.7 0.0
25/05:30pm 31.2 31.1 20.8 54 7.1 NW 22 32 12 17 1007.4 1004.4 0.0
25/05:00pm 31.0 30.9 20.0 52 7.4 NW 20 32 11 17 1007.6 1004.6 0.0
25/04:30pm 32.4 32.2 19.3 46 8.7 W 19 24 10 13 1007.4 1004.4 0.0

Other Formats:

Comma delimited format used in spreadsheet applications
http://www.bom.gov.au/fwo/IDD60801/IDD60801.94141.axf

JavaScript Object Notation format (JSON) in row-major order
http://www.bom.gov.au/fwo/IDD60801/IDD60801.94141.json